sensor_id;sensor_type;location;lat;lon;timestamp;pressure;altitude;pressure_sealevel;temperature;humidity
60479;BME280;46321;48.398;11.754;2022-11-13T00:02:15;97705.25;;;2.79;95.01
60479;BME280;46321;48.398;11.754;2022-11-13T00:04:41;97698.06;;;2.82;94.68
60479;BME280;46321;48.398;11.754;2022-11-13T00:07:06;97692.38;;;2.75;95.13
60479;BME280;46321;48.398;11.754;2022-11-13T00:09:31;97693.78;;;2.81;95.15
60479;BME280;46321;48.398;11.754;2022-11-13T00:11:56;97696.22;;;2.84;94.96
60479;BME280;46321;48.398;11.754;2022-11-13T00:14:22;97689.28;;;2.83;95.19
60479;BME280;46321;48.398;11.754;2022-11-13T00:16:47;97687.59;;;2.82;95.29
60479;BME280;46321;48.398;11.754;2022-11-13T00:19:12;97685.44;;;2.89;95.30
60479;BME280;46321;48.398;11.754;2022-11-13T00:21:37;97681.16;;;2.88;95.09
60479;BME280;46321;48.398;11.754;2022-11-13T00:24:03;97677.50;;;2.91;95.29
60479;BME280;46321;48.398;11.754;2022-11-13T00:26:30;97679.19;;;2.92;95.14
60479;BME280;46321;48.398;11.754;2022-11-13T00:28:58;97674.34;;;2.85;95.19
60479;BME280;46321;48.398;11.754;2022-11-13T00:31:24;97669.22;;;2.84;96.01
60479;BME280;46321;48.398;11.754;2022-11-13T00:33:50;97658.28;;;2.77;96.38
60479;BME280;46321;48.398;11.754;2022-11-13T00:36:17;97653.16;;;2.75;96.38
60479;BME280;46321;48.398;11.754;2022-11-13T00:38:43;97651.88;;;2.68;96.53
60479;BME280;46321;48.398;11.754;2022-11-13T00:41:09;97652.84;;;2.80;96.36
60479;BME280;46321;48.398;11.754;2022-11-13T00:43:35;97657.78;;;2.85;95.91
60479;BME280;46321;48.398;11.754;2022-11-13T00:46:00;97651.66;;;2.71;95.66
60479;BME280;46321;48.398;11.754;2022-11-13T00:48:25;97660.75;;;2.66;96.24
60479;BME280;46321;48.398;11.754;2022-11-13T00:50:51;97654.84;;;2.77;95.92
60479;BME280;46321;48.398;11.754;2022-11-13T00:53:16;97642.59;;;2.77;95.89
60479;BME280;46321;48.398;11.754;2022-11-13T00:55:43;97646.59;;;2.83;95.65
60479;BME280;46321;48.398;11.754;2022-11-13T00:58:10;97649.88;;;2.86;95.56
60479;BME280;46321;48.398;11.754;2022-11-13T01:00:35;97637.91;;;2.82;95.29
60479;BME280;46321;48.398;11.754;2022-11-13T01:03:01;97632.72;;;2.68;95.17
60479;BME280;46321;48.398;11.754;2022-11-13T01:05:26;97627.69;;;2.65;95.02
60479;BME280;46321;48.398;11.754;2022-11-13T01:07:52;97627.22;;;2.58;94.95
60479;BME280;46321;48.398;11.754;2022-11-13T01:10:18;97619.31;;;2.59;94.70
60479;BME280;46321;48.398;11.754;2022-11-13T01:12:43;97614.75;;;2.48;95.06
60479;BME280;46321;48.398;11.754;2022-11-13T01:15:09;97611.63;;;2.28;95.13
60479;BME280;46321;48.398;11.754;2022-11-13T01:17:34;97613.91;;;2.33;95.72
60479;BME280;46321;48.398;11.754;2022-11-13T01:19:59;97611.63;;;2.28;96.06
60479;BME280;46321;48.398;11.754;2022-11-13T01:22:25;97605.78;;;2.38;95.45
60479;BME280;46321;48.398;11.754;2022-11-13T01:24:50;97597.03;;;2.39;95.10
60479;BME280;46321;48.398;11.754;2022-11-13T01:27:16;97597.88;;;2.39;95.13
60479;BME280;46321;48.398;11.754;2022-11-13T01:29:41;97597.78;;;2.26;95.50
60479;BME280;46321;48.398;11.754;2022-11-13T01:32:07;97593.97;;;2.32;95.68
60479;BME280;46321;48.398;11.754;2022-11-13T01:34:33;97584.06;;;2.37;95.11
60479;BME280;46321;48.398;11.754;2022-11-13T01:36:58;97590.13;;;2.38;95.10
60479;BME280;46321;48.398;11.754;2022-11-13T01:39:23;97594.25;;;2.27;94.86
60479;BME280;46321;48.398;11.754;2022-11-13T01:41:49;97586.00;;;2.34;94.23
60479;BME280;46321;48.398;11.754;2022-11-13T01:44:16;97580.25;;;2.28;94.24
60479;BME280;46321;48.398;11.754;2022-11-13T01:46:53;97581.63;;;2.34;94.01
60479;BME280;46321;48.398;11.754;2022-11-13T01:49:29;97578.94;;;2.21;94.17
60479;BME280;46321;48.398;11.754;2022-11-13T01:52:00;97582.88;;;2.28;93.73
60479;BME280;46321;48.398;11.754;2022-11-13T01:54:28;97578.91;;;2.36;93.43
60479;BME280;46321;48.398;11.754;2022-11-13T01:56:56;97574.53;;;2.36;92.98
60479;BME280;46321;48.398;11.754;2022-11-13T01:59:25;97573.97;;;2.31;92.58
60479;BME280;46321;48.398;11.754;2022-11-13T02:01:51;97573.78;;;2.34;92.24
60479;BME280;46321;48.398;11.754;2022-11-13T02:04:17;97576.50;;;2.33;92.29
60479;BME280;46321;48.398;11.754;2022-11-13T02:06:55;97571.56;;;2.28;92.32
60479;BME280;46321;48.398;11.754;2022-11-13T02:09:25;97569.81;;;2.28;92.06
60479;BME280;46321;48.398;11.754;2022-11-13T02:11:52;97568.28;;;2.24;92.30
60479;BME280;46321;48.398;11.754;2022-11-13T02:14:18;97568.97;;;2.28;92.21
60479;BME280;46321;48.398;11.754;2022-11-13T02:16:46;97570.72;;;2.27;92.34
60479;BME280;46321;48.398;11.754;2022-11-13T02:19:19;97568.41;;;2.23;92.10
60479;BME280;46321;48.398;11.754;2022-11-13T02:22:21;97568.88;;;2.15;92.69
60479;BME280;46321;48.398;11.754;2022-11-13T02:24:45;97567.94;;;2.16;92.42
60479;BME280;46321;48.398;11.754;2022-11-13T02:27:44;97560.31;;;2.13;92.28
60479;BME280;46321;48.398;11.754;2022-11-13T02:30:18;97548.72;;;2.02;92.79
60479;BME280;46321;48.398;11.754;2022-11-13T02:32:45;97553.59;;;1.94;94.13
60479;BME280;46321;48.398;11.754;2022-11-13T02:35:19;97544.34;;;1.88;94.19
60479;BME280;46321;48.398;11.754;2022-11-13T02:37:45;97535.69;;;1.88;93.77
60479;BME280;46321;48.398;11.754;2022-11-13T02:40:11;97534.69;;;1.90;94.12
60479;BME280;46321;48.398;11.754;2022-11-13T02:42:36;97533.91;;;1.88;93.92
60479;BME280;46321;48.398;11.754;2022-11-13T02:45:02;97533.00;;;1.89;93.67
60479;BME280;46321;48.398;11.754;2022-11-13T02:47:28;97527.38;;;1.96;93.31
60479;BME280;46321;48.398;11.754;2022-11-13T02:49:53;97517.97;;;1.93;93.55
60479;BME280;46321;48.398;11.754;2022-11-13T02:52:18;97520.50;;;1.80;94.35
60479;BME280;46321;48.398;11.754;2022-11-13T02:54:44;97510.41;;;1.88;93.38
60479;BME280;46321;48.398;11.754;2022-11-13T02:57:09;97506.41;;;1.82;93.46
60479;BME280;46321;48.398;11.754;2022-11-13T02:59:34;97508.09;;;1.69;93.95
60479;BME280;46321;48.398;11.754;2022-11-13T03:01:59;97501.19;;;1.82;93.97
60479;BME280;46321;48.398;11.754;2022-11-13T03:04:25;97510.50;;;1.87;93.57
60479;BME280;46321;48.398;11.754;2022-11-13T03:06:50;97493.66;;;1.78;93.49
60479;BME280;46321;48.398;11.754;2022-11-13T03:09:15;97494.38;;;1.80;93.54
60479;BME280;46321;48.398;11.754;2022-11-13T03:11:42;97483.31;;;1.76;93.59
60479;BME280;46321;48.398;11.754;2022-11-13T03:14:07;97494.50;;;1.78;93.78
60479;BME280;46321;48.398;11.754;2022-11-13T03:16:33;97489.16;;;1.80;93.65
60479;BME280;46321;48.398;11.754;2022-11-13T03:18:58;97490.28;;;1.76;93.70
60479;BME280;46321;48.398;11.754;2022-11-13T03:21:23;97484.59;;;1.69;93.44
60479;BME280;46321;48.398;11.754;2022-11-13T03:23:49;97476.22;;;1.64;93.75
60479;BME280;46321;48.398;11.754;2022-11-13T03:26:15;97472.22;;;1.58;94.26
60479;BME280;46321;48.398;11.754;2022-11-13T03:28:41;97479.28;;;1.70;93.73
60479;BME280;46321;48.398;11.754;2022-11-13T03:31:07;97482.34;;;1.77;93.47
60479;BME280;46321;48.398;11.754;2022-11-13T03:33:32;97460.38;;;1.67;93.21
60479;BME280;46321;48.398;11.754;2022-11-13T03:35:57;97472.56;;;1.66;93.00
60479;BME280;46321;48.398;11.754;2022-11-13T03:38:23;97467.47;;;1.65;93.17
60479;BME280;46321;48.398;11.754;2022-11-13T03:40:49;97477.81;;;1.52;93.19
60479;BME280;46321;48.398;11.754;2022-11-13T03:43:14;97474.75;;;1.45;93.33
60479;BME280;46321;48.398;11.754;2022-11-13T03:45:39;97475.09;;;1.53;93.27
60479;BME280;46321;48.398;11.754;2022-11-13T03:48:05;97475.47;;;1.47;92.83
60479;BME280;46321;48.398;11.754;2022-11-13T03:50:31;97469.41;;;1.46;92.98
60479;BME280;46321;48.398;11.754;2022-11-13T03:52:56;97465.69;;;1.51;93.22
60479;BME280;46321;48.398;11.754;2022-11-13T03:55:21;97460.38;;;1.37;92.80
60479;BME280;46321;48.398;11.754;2022-11-13T03:57:46;97450.16;;;1.34;92.83
60479;BME280;46321;48.398;11.754;2022-11-13T04:00:13;97449.09;;;1.37;93.03
60479;BME280;46321;48.398;11.754;2022-11-13T04:02:38;97449.00;;;1.24;93.28
60479;BME280;46321;48.398;11.754;2022-11-13T04:05:04;97452.75;;;1.34;93.23
60479;BME280;46321;48.398;11.754;2022-11-13T04:07:30;97449.38;;;1.32;93.16
60479;BME280;46321;48.398;11.754;2022-11-13T04:09:55;97444.38;;;1.29;93.14
60479;BME280;46321;48.398;11.754;2022-11-13T04:12:20;97434.66;;;1.31;92.95
60479;BME280;46321;48.398;11.754;2022-11-13T04:14:46;97438.66;;;1.37;92.95
60479;BME280;46321;48.398;11.754;2022-11-13T04:17:11;97427.22;;;1.40;92.93
60479;BME280;46321;48.398;11.754;2022-11-13T04:19:36;97426.09;;;1.29;93.17
60479;BME280;46321;48.398;11.754;2022-11-13T04:22:01;97419.41;;;1.25;93.46
60479;BME280;46321;48.398;11.754;2022-11-13T04:24:27;97431.31;;;1.29;93.22
60479;BME280;46321;48.398;11.754;2022-11-13T04:26:52;97419.19;;;1.28;93.75
60479;BME280;46321;48.398;11.754;2022-11-13T04:29:17;97424.41;;;1.28;94.02
60479;BME280;46321;48.398;11.754;2022-11-13T04:31:42;97422.53;;;1.30;93.88
60479;BME280;46321;48.398;11.754;2022-11-13T04:34:08;97415.75;;;1.13;94.39
60479;BME280;46321;48.398;11.754;2022-11-13T04:36:33;97417.53;;;1.27;94.47
60479;BME280;46321;48.398;11.754;2022-11-13T04:38:58;97418.44;;;1.26;93.59
60479;BME280;46321;48.398;11.754;2022-11-13T04:41:23;97427.03;;;1.28;93.61
60479;BME280;46321;48.398;11.754;2022-11-13T04:44:07;97408.75;;;1.28;93.76
60479;BME280;46321;48.398;11.754;2022-11-13T04:46:32;97408.59;;;1.31;93.67
60479;BME280;46321;48.398;11.754;2022-11-13T04:48:58;97406.72;;;1.33;93.27
60479;BME280;46321;48.398;11.754;2022-11-13T04:51:23;97401.50;;;1.33;93.84
60479;BME280;46321;48.398;11.754;2022-11-13T04:53:48;97400.66;;;1.33;93.33
60479;BME280;46321;48.398;11.754;2022-11-13T04:56:13;97397.75;;;1.37;93.03
60479;BME280;46321;48.398;11.754;2022-11-13T04:58:39;97394.97;;;1.26;93.17
60479;BME280;46321;48.398;11.754;2022-11-13T05:01:04;97392.63;;;1.21;93.38
60479;BME280;46321;48.398;11.754;2022-11-13T05:03:29;97388.47;;;1.19;93.46
60479;BME280;46321;48.398;11.754;2022-11-13T05:06:03;97388.47;;;1.19;93.45
60479;BME280;46321;48.398;11.754;2022-11-13T05:08:28;97390.13;;;1.20;93.50
60479;BME280;46321;48.398;11.754;2022-11-13T05:10:54;97393.75;;;1.17;93.79
60479;BME280;46321;48.398;11.754;2022-11-13T05:13:19;97395.72;;;1.13;93.94
60479;BME280;46321;48.398;11.754;2022-11-13T05:15:44;97394.59;;;1.18;93.65
60479;BME280;46321;48.398;11.754;2022-11-13T05:18:09;97399.19;;;1.14;93.59
60479;BME280;46321;48.398;11.754;2022-11-13T05:20:35;97396.19;;;1.20;93.38
60479;BME280;46321;48.398;11.754;2022-11-13T05:23:00;97398.53;;;1.25;92.92
60479;BME280;46321;48.398;11.754;2022-11-13T05:25:25;97399.34;;;1.25;92.76
60479;BME280;46321;48.398;11.754;2022-11-13T05:27:50;97394.91;;;1.28;92.48
60479;BME280;46321;48.398;11.754;2022-11-13T05:30:16;97390.03;;;1.21;92.75
60479;BME280;46321;48.398;11.754;2022-11-13T05:32:41;97388.53;;;1.17;92.66
60479;BME280;46321;48.398;11.754;2022-11-13T05:35:07;97366.75;;;1.18;92.85
60479;BME280;46321;48.398;11.754;2022-11-13T05:37:32;97364.06;;;1.20;92.85
60479;BME280;46321;48.398;11.754;2022-11-13T05:39:57;97366.31;;;1.11;92.93
60479;BME280;46321;48.398;11.754;2022-11-13T05:42:23;97372.16;;;1.15;92.90
60479;BME280;46321;48.398;11.754;2022-11-13T05:44:48;97363.13;;;1.21;93.06
60479;BME280;46321;48.398;11.754;2022-11-13T05:47:13;97358.66;;;1.23;92.50
60479;BME280;46321;48.398;11.754;2022-11-13T05:49:38;97337.22;;;1.18;92.82
60479;BME280;46321;48.398;11.754;2022-11-13T05:52:04;97323.72;;;1.11;92.60
60479;BME280;46321;48.398;11.754;2022-11-13T05:54:29;97335.66;;;1.15;92.90
60479;BME280;46321;48.398;11.754;2022-11-13T05:56:54;97331.44;;;1.12;92.99
60479;BME280;46321;48.398;11.754;2022-11-13T05:59:19;97323.25;;;1.04;93.10
60479;BME280;46321;48.398;11.754;2022-11-13T06:01:45;97321.22;;;1.09;93.15
60479;BME280;46321;48.398;11.754;2022-11-13T06:04:10;97317.66;;;1.10;93.03
60479;BME280;46321;48.398;11.754;2022-11-13T06:06:35;97326.91;;;1.16;92.96
60479;BME280;46321;48.398;11.754;2022-11-13T06:09:03;97337.97;;;1.20;92.96
60479;BME280;46321;48.398;11.754;2022-11-13T06:11:29;97329.41;;;1.18;92.87
60479;BME280;46321;48.398;11.754;2022-11-13T06:13:55;97336.59;;;1.14;92.79
60479;BME280;46321;48.398;11.754;2022-11-13T06:16:26;97333.88;;;1.16;92.80
60479;BME280;46321;48.398;11.754;2022-11-13T06:18:59;97330.25;;;1.18;92.55
60479;BME280;46321;48.398;11.754;2022-11-13T06:21:27;97325.88;;;1.19;92.54
60479;BME280;46321;48.398;11.754;2022-11-13T06:23:52;97320.84;;;1.16;92.49
60479;BME280;46321;48.398;11.754;2022-11-13T06:26:20;97315.34;;;1.20;92.59
60479;BME280;46321;48.398;11.754;2022-11-13T06:28:46;97326.22;;;1.12;92.39
60479;BME280;46321;48.398;11.754;2022-11-13T06:31:14;97320.09;;;1.13;92.05
60479;BME280;46321;48.398;11.754;2022-11-13T06:33:41;97315.44;;;1.19;91.86
60479;BME280;46321;48.398;11.754;2022-11-13T06:36:17;97302.56;;;1.16;91.39
60479;BME280;46321;48.398;11.754;2022-11-13T06:38:43;97292.53;;;0.95;92.44
60479;BME280;46321;48.398;11.754;2022-11-13T06:41:11;97286.75;;;1.04;92.30
60479;BME280;46321;48.398;11.754;2022-11-13T06:43:37;97299.34;;;1.12;91.85
60479;BME280;46321;48.398;11.754;2022-11-13T06:46:12;97294.88;;;0.99;92.28
60479;BME280;46321;48.398;11.754;2022-11-13T06:48:38;97287.72;;;1.03;92.21
60479;BME280;46321;48.398;11.754;2022-11-13T06:51:04;97282.91;;;1.10;91.87
60479;BME280;46321;48.398;11.754;2022-11-13T06:53:31;97273.03;;;1.15;91.77
60479;BME280;46321;48.398;11.754;2022-11-13T06:55:57;97273.72;;;1.19;91.95
60479;BME280;46321;48.398;11.754;2022-11-13T06:58:22;97277.81;;;1.08;92.32
60479;BME280;46321;48.398;11.754;2022-11-13T07:00:48;97271.84;;;1.21;92.09
60479;BME280;46321;48.398;11.754;2022-11-13T07:05:40;97261.19;;;1.24;91.72
60479;BME280;46321;48.398;11.754;2022-11-13T07:08:05;97264.91;;;1.34;91.76
60479;BME280;46321;48.398;11.754;2022-11-13T07:10:30;97256.47;;;1.44;91.59
60479;BME280;46321;48.398;11.754;2022-11-13T07:12:58;97250.38;;;1.58;91.57
60479;BME280;46321;48.398;11.754;2022-11-13T07:15:24;97250.97;;;1.89;91.67
60479;BME280;46321;48.398;11.754;2022-11-13T07:17:49;97251.03;;;2.42;91.31
60479;BME280;46321;48.398;11.754;2022-11-13T07:20:14;97247.16;;;2.98;89.95
60479;BME280;46321;48.398;11.754;2022-11-13T07:22:40;97242.81;;;3.48;86.75
60479;BME280;46321;48.398;11.754;2022-11-13T07:25:05;97263.75;;;4.08;85.18
60479;BME280;46321;48.398;11.754;2022-11-13T07:27:31;97240.69;;;4.48;80.70
60479;BME280;46321;48.398;11.754;2022-11-13T07:29:56;97246.19;;;5.02;78.49
60479;BME280;46321;48.398;11.754;2022-11-13T07:32:21;97241.31;;;5.42;75.93
60479;BME280;46321;48.398;11.754;2022-11-13T07:34:46;97246.16;;;5.91;75.67
60479;BME280;46321;48.398;11.754;2022-11-13T07:37:12;97245.28;;;6.02;72.53
60479;BME280;46321;48.398;11.754;2022-11-13T07:39:37;97230.38;;;6.56;73.55
60479;BME280;46321;48.398;11.754;2022-11-13T07:42:02;97234.78;;;7.38;70.76
60479;BME280;46321;48.398;11.754;2022-11-13T07:44:28;97237.84;;;7.43;67.52
60479;BME280;46321;48.398;11.754;2022-11-13T07:46:53;97244.81;;;7.64;67.97
60479;BME280;46321;48.398;11.754;2022-11-13T07:49:18;97246.84;;;8.10;66.42
60479;BME280;46321;48.398;11.754;2022-11-13T07:51:44;97252.19;;;8.58;64.56
60479;BME280;46321;48.398;11.754;2022-11-13T07:54:09;97242.88;;;9.02;62.97
60479;BME280;46321;48.398;11.754;2022-11-13T07:56:34;97260.66;;;9.00;62.34
60479;BME280;46321;48.398;11.754;2022-11-13T07:58:59;97257.72;;;9.03;61.03
60479;BME280;46321;48.398;11.754;2022-11-13T08:01:25;97260.44;;;9.39;59.52
60479;BME280;46321;48.398;11.754;2022-11-13T08:03:50;97255.84;;;9.42;59.52
60479;BME280;46321;48.398;11.754;2022-11-13T08:06:15;97243.47;;;9.42;59.39
60479;BME280;46321;48.398;11.754;2022-11-13T08:08:41;97253.03;;;9.25;58.61
60479;BME280;46321;48.398;11.754;2022-11-13T08:11:08;97256.34;;;9.27;58.61
60479;BME280;46321;48.398;11.754;2022-11-13T08:13:35;97260.06;;;9.34;59.25
60479;BME280;46321;48.398;11.754;2022-11-13T08:16:01;97251.06;;;9.27;58.00
60479;BME280;46321;48.398;11.754;2022-11-13T08:18:28;97237.13;;;9.71;59.06
60479;BME280;46321;48.398;11.754;2022-11-13T08:20:54;97242.94;;;10.38;57.74
60479;BME280;46321;48.398;11.754;2022-11-13T08:23:20;97248.59;;;10.97;55.20
60479;BME280;46321;48.398;11.754;2022-11-13T08:25:45;97239.03;;;11.89;53.65
60479;BME280;46321;48.398;11.754;2022-11-13T08:28:11;97230.22;;;12.39;53.27
60479;BME280;46321;48.398;11.754;2022-11-13T08:30:36;97222.75;;;13.00;50.54
60479;BME280;46321;48.398;11.754;2022-11-13T08:33:02;97218.66;;;13.53;50.24
60479;BME280;46321;48.398;11.754;2022-11-13T08:35:28;97202.47;;;14.25;48.85
60479;BME280;46321;48.398;11.754;2022-11-13T08:37:53;97184.03;;;14.84;47.91
60479;BME280;46321;48.398;11.754;2022-11-13T08:40:18;97162.31;;;15.39;46.67
60479;BME280;46321;48.398;11.754;2022-11-13T08:42:44;97181.19;;;15.60;46.09
60479;BME280;46321;48.398;11.754;2022-11-13T08:45:09;97188.47;;;15.73;45.14
60479;BME280;46321;48.398;11.754;2022-11-13T08:47:35;97185.13;;;15.86;44.88
60479;BME280;46321;48.398;11.754;2022-11-13T08:50:01;97198.44;;;16.65;43.86
60479;BME280;46321;48.398;11.754;2022-11-13T08:52:26;97194.88;;;16.87;42.27
60479;BME280;46321;48.398;11.754;2022-11-13T08:54:51;97207.44;;;16.57;41.56
60479;BME280;46321;48.398;11.754;2022-11-13T08:57:17;97201.06;;;17.01;41.28
60479;BME280;46321;48.398;11.754;2022-11-13T08:59:42;97195.94;;;17.55;40.55
60479;BME280;46321;48.398;11.754;2022-11-13T09:02:11;97190.72;;;16.84;40.07
60479;BME280;46321;48.398;11.754;2022-11-13T09:04:38;97175.06;;;17.30;40.67
60479;BME280;46321;48.398;11.754;2022-11-13T09:07:03;97185.06;;;17.91;39.36
60479;BME280;46321;48.398;11.754;2022-11-13T09:09:28;97183.34;;;18.64;38.63
60479;BME280;46321;48.398;11.754;2022-11-13T09:11:53;97171.38;;;19.27;37.66
60479;BME280;46321;48.398;11.754;2022-11-13T09:14:19;97186.63;;;18.73;37.27
60479;BME280;46321;48.398;11.754;2022-11-13T09:16:44;97184.47;;;19.03;36.49
60479;BME280;46321;48.398;11.754;2022-11-13T09:19:09;97169.72;;;19.58;36.75
60479;BME280;46321;48.398;11.754;2022-11-13T09:21:35;97164.34;;;19.90;34.79
60479;BME280;46321;48.398;11.754;2022-11-13T09:24:00;97160.59;;;20.43;34.79
60479;BME280;46321;48.398;11.754;2022-11-13T09:26:25;97171.91;;;20.52;34.39
60479;BME280;46321;48.398;11.754;2022-11-13T09:28:50;97168.22;;;20.46;34.03
60479;BME280;46321;48.398;11.754;2022-11-13T09:31:16;97167.31;;;20.71;33.74
60479;BME280;46321;48.398;11.754;2022-11-13T09:33:41;97161.94;;;21.39;33.44
60479;BME280;46321;48.398;11.754;2022-11-13T09:36:11;97164.47;;;21.65;32.42
60479;BME280;46321;48.398;11.754;2022-11-13T09:38:37;97158.31;;;21.77;31.86
60479;BME280;46321;48.398;11.754;2022-11-13T09:41:07;97142.59;;;22.82;31.32
60479;BME280;46321;48.398;11.754;2022-11-13T09:43:42;97147.38;;;23.50;30.47
60479;BME280;46321;48.398;11.754;2022-11-13T09:46:33;97137.63;;;22.37;30.30
60479;BME280;46321;48.398;11.754;2022-11-13T09:49:05;97135.00;;;23.08;29.46
60479;BME280;46321;48.398;11.754;2022-11-13T09:51:37;97145.44;;;22.75;30.46
60479;BME280;46321;48.398;11.754;2022-11-13T09:54:05;97128.47;;;23.21;29.62
60479;BME280;46321;48.398;11.754;2022-11-13T09:57:02;97114.78;;;24.43;28.21
60479;BME280;46321;48.398;11.754;2022-11-13T09:59:39;97105.25;;;24.01;28.29
60479;BME280;46321;48.398;11.754;2022-11-13T10:07:25;97105.25;;;23.66;28.90
60479;BME280;46321;48.398;11.754;2022-11-13T10:10:10;97108.69;;;23.15;28.89
60479;BME280;46321;48.398;11.754;2022-11-13T10:12:39;97095.09;;;23.74;29.38
60479;BME280;46321;48.398;11.754;2022-11-13T10:15:08;97098.84;;;23.38;28.76
60479;BME280;46321;48.398;11.754;2022-11-13T10:17:45;97094.94;;;23.17;28.45
60479;BME280;46321;48.398;11.754;2022-11-13T10:20:22;97102.72;;;22.72;29.80
60479;BME280;46321;48.398;11.754;2022-11-13T10:22:55;97103.84;;;23.64;29.08
60479;BME280;46321;48.398;11.754;2022-11-13T10:25:27;97094.63;;;23.30;29.37
60479;BME280;46321;48.398;11.754;2022-11-13T10:27:56;97083.75;;;24.11;28.06
60479;BME280;46321;48.398;11.754;2022-11-13T10:30:22;97075.16;;;24.15;27.82
60479;BME280;46321;48.398;11.754;2022-11-13T10:32:47;97085.13;;;24.31;27.43
60479;BME280;46321;48.398;11.754;2022-11-13T10:35:36;97070.00;;;25.31;27.32
60479;BME280;46321;48.398;11.754;2022-11-13T10:40:47;97047.34;;;25.75;26.61
60479;BME280;46321;48.398;11.754;2022-11-13T10:43:18;97043.31;;;26.37;26.38
60479;BME280;46321;48.398;11.754;2022-11-13T10:46:20;97042.06;;;26.01;25.27
60479;BME280;46321;48.398;11.754;2022-11-13T10:48:46;97043.88;;;25.85;26.43
60479;BME280;46321;48.398;11.754;2022-11-13T10:53:50;97033.09;;;24.46;27.46
60479;BME280;46321;48.398;11.754;2022-11-13T10:56:31;97021.69;;;25.93;25.98
60479;BME280;46321;48.398;11.754;2022-11-13T10:59:01;97007.69;;;26.92;24.94
60479;BME280;46321;48.398;11.754;2022-11-13T11:01:27;97011.69;;;28.15;24.66
60479;BME280;46321;48.398;11.754;2022-11-13T11:03:52;97008.72;;;28.11;23.07
60479;BME280;46321;48.398;11.754;2022-11-13T11:06:18;97011.66;;;26.48;24.74
60479;BME280;46321;48.398;11.754;2022-11-13T11:08:43;97010.00;;;26.41;24.64
60479;BME280;46321;48.398;11.754;2022-11-13T11:11:14;97000.88;;;26.79;25.18
60479;BME280;46321;48.398;11.754;2022-11-13T11:14:22;97000.09;;;27.15;24.85
60479;BME280;46321;48.398;11.754;2022-11-13T11:16:51;96997.91;;;26.91;24.49
60479;BME280;46321;48.398;11.754;2022-11-13T11:19:19;97004.94;;;26.71;25.35
60479;BME280;46321;48.398;11.754;2022-11-13T11:21:47;96984.34;;;27.64;24.96
60479;BME280;46321;48.398;11.754;2022-11-13T11:24:19;96973.56;;;29.76;22.46
60479;BME280;46321;48.398;11.754;2022-11-13T11:29:36;96959.34;;;30.48;20.53
60479;BME280;46321;48.398;11.754;2022-11-13T11:32:05;96959.78;;;32.31;19.35
60479;BME280;46321;48.398;11.754;2022-11-13T11:34:43;96964.22;;;26.87;24.84
60479;BME280;46321;48.398;11.754;2022-11-13T11:37:18;96965.72;;;22.45;30.71
60479;BME280;46321;48.398;11.754;2022-11-13T11:44:51;96967.50;;;18.02;39.46
60479;BME280;46321;48.398;11.754;2022-11-13T11:47:18;96964.06;;;17.81;40.01
60479;BME280;46321;48.398;11.754;2022-11-13T11:49:44;96955.69;;;17.44;41.52
60479;BME280;46321;48.398;11.754;2022-11-13T11:55:30;96951.91;;;15.22;46.09
60479;BME280;46321;48.398;11.754;2022-11-13T12:01:04;96941.09;;;14.80;48.55
60479;BME280;46321;48.398;11.754;2022-11-13T12:06:50;96937.59;;;14.36;49.71
60479;BME280;46321;48.398;11.754;2022-11-13T12:09:29;96936.03;;;13.74;51.38
60479;BME280;46321;48.398;11.754;2022-11-13T12:12:36;96923.66;;;13.81;52.07
60479;BME280;46321;48.398;11.754;2022-11-13T12:20:47;96905.38;;;13.78;53.68
60479;BME280;46321;48.398;11.754;2022-11-13T12:23:54;96910.41;;;14.03;52.71
60479;BME280;46321;48.398;11.754;2022-11-13T12:26:34;96916.00;;;13.93;53.30
60479;BME280;46321;48.398;11.754;2022-11-13T12:29:12;96899.56;;;14.05;53.65
60479;BME280;46321;48.398;11.754;2022-11-13T12:31:53;96904.72;;;14.28;52.77
60479;BME280;46321;48.398;11.754;2022-11-13T12:34:28;96900.25;;;14.29;53.15
60479;BME280;46321;48.398;11.754;2022-11-13T12:36:54;96897.19;;;14.54;53.63
60479;BME280;46321;48.398;11.754;2022-11-13T12:39:38;96895.38;;;14.83;52.34
60479;BME280;46321;48.398;11.754;2022-11-13T12:42:20;96898.06;;;14.61;51.80
60479;BME280;46321;48.398;11.754;2022-11-13T12:45:19;96892.13;;;14.00;53.66
60479;BME280;46321;48.398;11.754;2022-11-13T12:47:48;96885.75;;;13.79;54.42
60479;BME280;46321;48.398;11.754;2022-11-13T12:50:28;96872.66;;;14.15;54.60
60479;BME280;46321;48.398;11.754;2022-11-13T12:53:07;96867.63;;;14.05;53.73
60479;BME280;46321;48.398;11.754;2022-11-13T12:55:35;96862.56;;;14.32;53.67
60479;BME280;46321;48.398;11.754;2022-11-13T12:58:10;96866.75;;;14.41;54.44
60479;BME280;46321;48.398;11.754;2022-11-13T13:00:51;96861.16;;;14.14;54.51
60479;BME280;46321;48.398;11.754;2022-11-13T13:03:29;96861.22;;;14.21;53.97
60479;BME280;46321;48.398;11.754;2022-11-13T13:08:52;96860.34;;;14.14;54.48
60479;BME280;46321;48.398;11.754;2022-11-13T13:11:34;96852.44;;;14.42;53.67
60479;BME280;46321;48.398;11.754;2022-11-13T13:14:16;96844.75;;;14.54;53.83
60479;BME280;46321;48.398;11.754;2022-11-13T13:16:45;96833.59;;;14.44;55.38
60479;BME280;46321;48.398;11.754;2022-11-13T13:19:25;96839.09;;;14.20;54.11
60479;BME280;46321;48.398;11.754;2022-11-13T13:21:52;96837.47;;;14.19;54.87
60479;BME280;46321;48.398;11.754;2022-11-13T13:24:32;96822.63;;;14.32;55.22
60479;BME280;46321;48.398;11.754;2022-11-13T13:26:59;96818.41;;;14.38;54.71
60479;BME280;46321;48.398;11.754;2022-11-13T13:29:26;96809.09;;;14.27;54.94
60479;BME280;46321;48.398;11.754;2022-11-13T13:37:38;96811.22;;;14.16;54.37
60479;BME280;46321;48.398;11.754;2022-11-13T13:45:53;96831.22;;;13.68;55.95
60479;BME280;46321;48.398;11.754;2022-11-13T13:48:24;96826.56;;;13.55;56.46
60479;BME280;46321;48.398;11.754;2022-11-13T13:50:51;96834.59;;;13.32;57.51
60479;BME280;46321;48.398;11.754;2022-11-13T13:53:25;96809.22;;;13.29;57.52
60479;BME280;46321;48.398;11.754;2022-11-13T13:55:53;96809.41;;;13.27;57.47